Portada
METAR-TAF:

METAR-TAF

Aeropuertos :

Aeropuerto Internacional de Nayaf

Nayaf, Iraq

latitud: 31-59-23N, longitud: 44-24-15E, altitud: 31 m

Observación

El informe se hizo hace 1 hora y 2 minutos, a las 05:00 UTC
Viento calma
Temperatura 9°C
Humedad 100%
Presión 1018 hPa
Visibilidad: 1200 m
neblina

METAR: ORNI 120500Z 00000KT 1200 BR NSC 09/09 Q1018 NOSIG

Hora: 09:02 (06:02 UTC)

Pronóstico

El informe se hizo hace 2 horas y 2 minutos, a las 04:00 UTC
Pronóstico válido del 12 a las 06 UTC al 13 a las 06 UTC
Viento 3 kt con dirección variable
Visibilidad: 3000 m
neblina
Evolucionando progresivamente
del 12 a las 07 UTC al 12 a las 09 UTC
Visibilidad: 6000 m

TAF: ORNI 120400Z 1206/1306 VRB03KT 3000 BR NSC BECMG 1207/1209 6000

Observaciones y pronósticos meteorológicos de más de 4000 aeropuertos (mensajes METAR y TAF).

Los puntos amarillos y rojos representan las estaciones disponibles.

Ponga el ratón en el punto deseado para ver el nombre de la estación.

Haga clic para ver las observaciones y los pronósticos meteorológicos.

Para cambiar el mapa : haga clic en los botones verdes con una cruz de color negro para hacer un zoom, en el botón verde con un guión para alejar o en las flechas verdes para mapas adyacentes.


METAR-TAF: